createdAt,value
2022-11-03T00:01:39.864Z,1.00
2022-11-03T00:04:12.409Z,1.00
2022-11-03T00:06:42.714Z,1.00
2022-11-03T00:09:13.445Z,1.00
2022-11-03T00:11:44.463Z,1.00
2022-11-03T00:14:14.882Z,1.00
2022-11-03T00:16:44.720Z,1.00
2022-11-03T00:19:17.597Z,1.00
2022-11-03T00:21:47.357Z,1.00
2022-11-03T00:24:16.481Z,1.00
2022-11-03T00:26:45.750Z,1.00
2022-11-03T00:29:16.876Z,1.00
2022-11-03T00:31:46.881Z,1.00
2022-11-03T00:34:17.363Z,1.00
2022-11-03T00:36:46.960Z,1.00
2022-11-03T00:39:16.023Z,1.00
2022-11-03T00:41:45.240Z,1.00
2022-11-03T00:44:14.360Z,1.00
2022-11-03T00:46:43.448Z,1.00
2022-11-03T00:49:12.462Z,1.00
2022-11-03T00:51:42.900Z,1.00
2022-11-03T00:54:12.273Z,1.00
2022-11-03T00:56:44.553Z,1.00
2022-11-03T00:59:13.767Z,1.00
2022-11-03T01:01:47.060Z,1.00
2022-11-03T01:04:35.182Z,1.00
2022-11-03T01:07:07.875Z,1.00
2022-11-03T01:09:39.204Z,1.00
2022-11-03T01:12:10.509Z,1.00
2022-11-03T01:14:41.883Z,1.00
2022-11-03T01:17:12.798Z,1.00
2022-11-03T01:19:41.843Z,1.00
2022-11-03T01:22:12.852Z,1.00
2022-11-03T01:24:42.741Z,1.00
2022-11-03T01:27:13.988Z,1.00
2022-11-03T01:29:43.100Z,1.00
2022-11-03T01:32:12.966Z,1.00
2022-11-03T01:34:42.190Z,1.00
2022-11-03T01:37:12.681Z,1.00
2022-11-03T01:39:41.844Z,1.00
2022-11-03T01:42:14.548Z,1.00
2022-11-03T01:44:46.761Z,1.00
2022-11-03T01:47:22.775Z,1.00
2022-11-03T01:49:56.939Z,1.00
2022-11-03T01:52:31.121Z,1.00
2022-11-03T01:55:03.693Z,1.00
2022-11-03T01:57:38.884Z,1.00
2022-11-03T02:00:09.824Z,1.00
2022-11-03T02:02:42.109Z,1.00
2022-11-03T02:05:13.375Z,1.00
2022-11-03T02:07:51.248Z,1.00
2022-11-03T02:10:20.526Z,1.00
2022-11-03T02:12:50.449Z,1.00
2022-11-03T02:15:21.818Z,1.00
2022-11-03T02:17:53.717Z,1.00
2022-11-03T02:20:25.948Z,17.90
2022-11-03T02:23:22.908Z,1.00
2022-11-03T02:25:55.894Z,19.60
2022-11-03T02:28:28.520Z,22.20
2022-11-03T02:31:04.876Z,1.00
2022-11-03T02:33:43.290Z,34.10
2022-11-03T02:36:18.598Z,65.60
2022-11-03T02:38:51.653Z,54.20
2022-11-03T02:41:24.709Z,1.00
2022-11-03T02:43:56.204Z,18.20
2022-11-03T02:46:27.798Z,1.00
2022-11-03T02:48:57.554Z,48.10
2022-11-03T02:51:27.141Z,23.50
2022-11-03T02:54:06.024Z,99.90
2022-11-03T02:56:43.244Z,84.40
2022-11-03T02:59:16.664Z,92.30
2022-11-03T03:01:52.942Z,81.30
2022-11-03T03:04:28.503Z,99.90
2022-11-03T03:07:03.228Z,56.20
2022-11-03T03:09:37.560Z,93.40
2022-11-03T03:12:10.259Z,94.10
2022-11-03T03:14:42.071Z,99.90
2022-11-03T03:17:16.001Z,99.90
2022-11-03T03:19:51.349Z,57.30
2022-11-03T03:22:26.378Z,59.30
2022-11-03T03:25:02.381Z,99.90
2022-11-03T03:27:35.608Z,99.90
2022-11-03T03:30:07.417Z,99.90
2022-11-03T03:32:39.631Z,99.90
2022-11-03T03:35:13.197Z,99.90
2022-11-03T03:37:47.935Z,99.90
2022-11-03T03:40:23.033Z,99.90
2022-11-03T03:42:55.685Z,99.90
2022-11-03T03:45:27.575Z,99.90
2022-11-03T03:47:57.925Z,99.90
2022-11-03T03:50:30.960Z,99.90
2022-11-03T03:53:03.275Z,99.90
2022-11-03T03:55:37.644Z,99.90
2022-11-03T03:58:09.473Z,99.90
2022-11-03T04:00:40.325Z,99.90
2022-11-03T04:03:18.053Z,99.90
2022-11-03T04:05:48.929Z,99.90
2022-11-03T04:08:19.038Z,99.90
2022-11-03T04:11:02.335Z,99.90
2022-11-03T04:13:50.860Z,99.90
2022-11-03T04:16:37.275Z,99.90
2022-11-03T04:19:23.778Z,99.90
2022-11-03T04:22:10.327Z,99.90
2022-11-03T04:24:39.360Z,99.90
2022-11-03T04:27:28.116Z,99.90
2022-11-03T04:30:03.503Z,99.90
2022-11-03T04:32:32.925Z,99.90
2022-11-03T04:35:02.433Z,99.90
2022-11-03T04:37:31.578Z,99.90
2022-11-03T04:40:01.957Z,99.90
2022-11-03T04:42:34.545Z,99.90
2022-11-03T04:45:18.350Z,99.90
2022-11-03T04:47:47.535Z,99.90
2022-11-03T04:50:20.766Z,99.90
2022-11-03T04:52:50.766Z,99.90
2022-11-03T04:55:21.976Z,99.90
2022-11-03T04:57:56.328Z,99.90
2022-11-03T05:00:27.033Z,99.90
2022-11-03T05:02:56.685Z,99.90
2022-11-03T05:05:27.920Z,99.90
2022-11-03T05:08:00.084Z,99.90
2022-11-03T05:10:31.268Z,99.90
2022-11-03T05:13:02.468Z,99.90
2022-11-03T05:15:37.037Z,99.90
2022-11-03T05:18:18.316Z,99.90
2022-11-03T05:20:51.978Z,99.90
2022-11-03T05:23:22.862Z,99.90
2022-11-03T05:25:54.077Z,99.90
2022-11-03T05:28:29.686Z,99.90
2022-11-03T05:31:00.197Z,99.90
2022-11-03T05:33:31.291Z,99.90
2022-11-03T05:36:03.695Z,99.90
2022-11-03T05:38:34.368Z,99.90
2022-11-03T05:41:03.757Z,99.90
2022-11-03T05:43:32.989Z,99.90
2022-11-03T05:48:38.525Z,99.90
2022-11-03T05:51:21.007Z,99.90
2022-11-03T05:53:53.976Z,99.90
2022-11-03T05:56:25.583Z,99.90
2022-11-03T05:58:57.053Z,99.90
2022-11-03T06:01:32.145Z,99.90
2022-11-03T06:04:02.933Z,99.90
2022-11-03T06:06:36.703Z,99.90
2022-11-03T06:09:18.056Z,99.90
2022-11-03T06:11:47.960Z,99.90
2022-11-03T06:14:24.354Z,99.90
2022-11-03T06:16:58.553Z,99.90
2022-11-03T06:19:31.666Z,99.90
2022-11-03T06:22:04.460Z,99.90
2022-11-03T06:24:35.282Z,99.90
2022-11-03T06:27:04.951Z,99.90
2022-11-03T06:29:36.012Z,99.90
2022-11-03T06:32:14.044Z,93.50
2022-11-03T06:34:46.082Z,91.10
2022-11-03T06:37:27.153Z,91.20
2022-11-03T06:40:02.141Z,67.20
2022-11-03T06:42:34.961Z,45.60
2022-11-03T06:45:14.522Z,1.00
2022-11-03T06:47:45.514Z,1.00
2022-11-03T06:50:24.452Z,1.00
2022-11-03T06:52:56.153Z,99.90
2022-11-03T06:55:27.852Z,1.00
2022-11-03T06:58:00.782Z,99.90
2022-11-03T07:00:34.582Z,1.00
2022-11-03T07:03:10.619Z,99.90
2022-11-03T07:05:40.863Z,1.00
2022-11-03T07:08:24.243Z,1.00
2022-11-03T07:11:02.268Z,99.90
2022-11-03T07:13:35.032Z,99.90
2022-11-03T07:16:04.792Z,99.90
2022-11-03T07:18:41.214Z,1.00
2022-11-03T07:21:31.216Z,1.00
2022-11-03T07:24:04.184Z,14.00
2022-11-03T07:26:35.473Z,99.90
2022-11-03T07:29:05.023Z,99.90
2022-11-03T07:31:35.225Z,1.00
2022-11-03T07:34:13.858Z,99.90
2022-11-03T07:36:45.684Z,1.00
2022-11-03T07:39:20.192Z,1.00
2022-11-03T07:41:50.801Z,89.00
2022-11-03T07:44:22.441Z,90.80
2022-11-03T07:46:52.716Z,91.60
2022-11-03T07:49:29.842Z,86.10
2022-11-03T07:52:01.362Z,73.30
2022-11-03T07:54:35.216Z,66.40
2022-11-03T07:57:13.295Z,41.00
2022-11-03T07:59:45.947Z,41.20
2022-11-03T08:02:27.972Z,23.70
2022-11-03T08:04:59.021Z,22.90
2022-11-03T08:07:29.704Z,10.60
2022-11-03T08:09:59.550Z,6.60
2022-11-03T08:12:29.545Z,4.10
2022-11-03T08:14:59.123Z,1.00
2022-11-03T08:17:29.092Z,1.00
2022-11-03T08:20:00.726Z,1.00
2022-11-03T08:22:30.434Z,1.00
2022-11-03T08:25:00.494Z,1.00
2022-11-03T08:27:30.225Z,1.00
2022-11-03T08:29:59.682Z,62.80
2022-11-03T08:32:29.625Z,1.00
2022-11-03T08:35:00.884Z,1.00
2022-11-03T08:37:30.775Z,1.00
2022-11-03T08:40:00.664Z,1.00
2022-11-03T08:42:30.523Z,1.00
2022-11-03T08:45:03.897Z,1.00
2022-11-03T08:47:33.835Z,1.00
2022-11-03T08:50:04.542Z,1.00
2022-11-03T08:52:34.257Z,1.00
2022-11-03T08:55:03.897Z,1.00
2022-11-03T08:57:33.298Z,1.00
2022-11-03T09:00:02.593Z,1.00
2022-11-03T09:02:32.551Z,1.00
2022-11-03T09:05:08.329Z,1.00
2022-11-03T09:10:33.276Z,1.00
2022-11-03T09:13:06.018Z,1.00
2022-11-03T09:15:39.253Z,1.00
2022-11-03T09:18:08.988Z,1.00
2022-11-03T09:20:39.912Z,1.00
2022-11-03T09:23:09.184Z,1.00
2022-11-03T09:25:39.024Z,1.00
2022-11-03T09:28:09.292Z,1.00
2022-11-03T09:30:38.944Z,1.00
2022-11-03T09:33:17.230Z,1.00
2022-11-03T09:35:48.387Z,1.00
2022-11-03T09:38:17.922Z,1.00
2022-11-03T09:43:18.661Z,1.00
2022-11-03T09:45:48.094Z,1.00
2022-11-03T09:48:17.943Z,1.00
2022-11-03T09:50:53.312Z,1.00
2022-11-03T09:53:25.693Z,1.00
2022-11-03T09:55:57.112Z,1.00
2022-11-03T09:58:27.544Z,1.00
2022-11-03T10:00:59.207Z,1.00
2022-11-03T10:03:29.446Z,1.00
2022-11-03T10:06:00.862Z,1.00
2022-11-03T10:08:33.524Z,1.00
2022-11-03T10:11:03.647Z,1.00
2022-11-03T10:13:38.225Z,1.00
2022-11-03T10:16:09.569Z,1.00
2022-11-03T10:18:39.349Z,1.00
2022-11-03T10:21:20.556Z,1.00
2022-11-03T10:23:50.985Z,1.00
2022-11-03T10:26:21.657Z,1.00
2022-11-03T10:29:10.124Z,1.00
2022-11-03T10:31:40.583Z,1.00
2022-11-03T10:34:27.746Z,1.00
2022-11-03T10:37:25.290Z,1.00
2022-11-03T10:39:56.036Z,1.00
2022-11-03T10:42:31.988Z,1.00
2022-11-03T10:45:18.253Z,1.00
2022-11-03T10:48:01.760Z,1.00
2022-11-03T10:50:31.727Z,1.00
2022-11-03T10:53:03.949Z,1.00
2022-11-03T10:55:33.391Z,1.00
2022-11-03T10:58:02.640Z,1.00
2022-11-03T11:00:32.106Z,1.00
2022-11-03T11:03:02.396Z,1.00
2022-11-03T11:05:32.006Z,1.00
2022-11-03T11:08:03.089Z,1.00
2022-11-03T11:10:33.177Z,1.00
2022-11-03T11:13:07.956Z,1.00
2022-11-03T11:15:40.534Z,1.00
2022-11-03T11:18:10.135Z,1.00
2022-11-03T11:20:41.672Z,1.00
2022-11-03T11:23:52.750Z,1.00
2022-11-03T11:26:46.127Z,1.00
2022-11-03T11:29:45.618Z,1.00
2022-11-03T11:32:48.190Z,1.00
2022-11-03T11:35:20.319Z,1.00
2022-11-03T11:37:49.979Z,1.00
2022-11-03T11:40:53.848Z,1.00
2022-11-03T11:43:31.117Z,1.00
2022-11-03T11:46:41.737Z,1.00
2022-11-03T11:49:29.088Z,1.00
2022-11-03T11:52:03.822Z,1.00
2022-11-03T11:54:33.500Z,1.00
2022-11-03T11:57:03.018Z,1.00
2022-11-03T11:59:33.871Z,1.00
2022-11-03T12:02:04.787Z,1.00
2022-11-03T12:04:34.930Z,1.00
2022-11-03T12:07:04.121Z,1.00
2022-11-03T12:09:34.106Z,1.00
2022-11-03T12:12:08.680Z,1.00
2022-11-03T12:14:40.386Z,1.00
2022-11-03T12:17:34.819Z,1.00
2022-11-03T12:20:36.959Z,1.00
2022-11-03T12:23:06.243Z,1.00
2022-11-03T12:25:37.640Z,1.00
2022-11-03T12:28:07.004Z,1.00
2022-11-03T12:30:40.215Z,1.00
2022-11-03T12:33:11.044Z,1.00
2022-11-03T12:35:40.405Z,1.00
2022-11-03T12:38:10.073Z,1.00
2022-11-03T12:40:39.375Z,1.00
2022-11-03T12:43:09.591Z,1.00
2022-11-03T12:45:41.673Z,1.00
2022-11-03T12:48:11.308Z,1.00
2022-11-03T12:50:41.046Z,1.00
2022-11-03T12:53:10.936Z,1.00
2022-11-03T12:55:43.669Z,1.00
2022-11-03T12:58:14.357Z,1.00
2022-11-03T13:00:49.943Z,1.00
2022-11-03T13:03:24.308Z,1.00
2022-11-03T13:05:53.467Z,1.00
2022-11-03T13:08:23.425Z,1.00
2022-11-03T13:10:52.868Z,1.00
2022-11-03T13:13:22.186Z,1.00
2022-11-03T13:15:53.336Z,1.00
2022-11-03T13:18:22.736Z,1.00
2022-11-03T13:20:53.587Z,1.00
2022-11-03T13:23:23.369Z,1.00
2022-11-03T13:25:52.735Z,1.00
2022-11-03T13:28:22.024Z,1.00
2022-11-03T13:30:52.676Z,1.00
2022-11-03T13:33:21.897Z,1.00
2022-11-03T13:35:51.199Z,1.00
2022-11-03T13:38:21.595Z,1.00
2022-11-03T13:40:57.795Z,1.00
2022-11-03T13:43:29.276Z,1.00
2022-11-03T13:46:02.801Z,1.00
2022-11-03T13:51:21.887Z,1.00
2022-11-03T13:59:30.002Z,1.00
2022-11-03T14:04:51.238Z,1.00
2022-11-03T14:07:20.625Z,1.00
2022-11-03T14:09:50.032Z,1.00
2022-11-03T14:12:36.155Z,1.00
2022-11-03T14:15:09.124Z,1.00
2022-11-03T14:17:40.826Z,1.00
2022-11-03T14:20:13.408Z,1.00
2022-11-03T14:22:42.926Z,1.00
2022-11-03T14:25:12.130Z,1.00
2022-11-03T14:27:41.869Z,1.00
2022-11-03T14:30:13.566Z,1.00
2022-11-03T14:32:44.535Z,1.00
2022-11-03T14:35:14.076Z,1.00
2022-11-03T14:37:43.325Z,1.00
2022-11-03T14:40:33.664Z,1.00
2022-11-03T14:43:01.876Z,1.00
2022-11-03T14:45:35.833Z,1.00
2022-11-03T14:48:09.608Z,1.00
2022-11-03T14:50:39.056Z,1.00
2022-11-03T14:53:08.362Z,1.00
2022-11-03T14:55:38.384Z,1.00
2022-11-03T14:58:09.124Z,1.00
2022-11-03T15:00:39.154Z,1.00
2022-11-03T15:03:10.206Z,1.00
2022-11-03T15:05:45.508Z,1.00
2022-11-03T15:08:16.214Z,1.00
2022-11-03T15:10:46.185Z,1.00
2022-11-03T15:13:16.396Z,1.00
2022-11-03T15:15:46.543Z,1.00
2022-11-03T15:18:18.633Z,1.00
2022-11-03T15:20:48.376Z,1.00
2022-11-03T15:26:07.716Z,1.00
2022-11-03T15:28:37.336Z,1.00
2022-11-03T15:31:07.246Z,1.00
2022-11-03T15:33:38.235Z,1.00
2022-11-03T15:36:09.417Z,1.00
2022-11-03T15:38:38.946Z,35.30
2022-11-03T15:41:17.725Z,99.90
2022-11-03T15:43:49.228Z,99.90
2022-11-03T15:46:20.278Z,99.90
2022-11-03T15:48:51.258Z,99.90
2022-11-03T15:51:20.539Z,99.90
2022-11-03T15:53:54.932Z,99.90
2022-11-03T15:56:26.267Z,99.90
2022-11-03T15:58:55.899Z,99.90
2022-11-03T16:01:26.194Z,1.00
2022-11-03T16:03:57.456Z,1.00
2022-11-03T16:06:46.695Z,1.00
2022-11-03T16:09:16.198Z,1.00
2022-11-03T16:11:45.407Z,1.00
2022-11-03T16:14:15.396Z,95.90
2022-11-03T16:16:45.346Z,99.90
2022-11-03T16:19:16.727Z,99.90
2022-11-03T16:21:46.279Z,99.90
2022-11-03T16:24:15.595Z,99.90
2022-11-03T16:26:45.367Z,1.00
2022-11-03T16:29:14.759Z,1.00
2022-11-03T16:31:44.049Z,1.00
2022-11-03T16:34:13.596Z,1.00
2022-11-03T16:36:44.777Z,37.30
2022-11-03T16:39:14.261Z,94.90
2022-11-03T16:41:43.676Z,99.90
2022-11-03T16:44:13.208Z,99.90
2022-11-03T16:46:42.737Z,1.00
2022-11-03T16:49:12.213Z,1.00
2022-11-03T16:51:41.797Z,4.20
2022-11-03T16:54:12.596Z,99.90
2022-11-03T16:56:44.709Z,99.90
2022-11-03T16:59:14.668Z,1.00
2022-11-03T17:01:44.110Z,1.00
2022-11-03T17:04:13.497Z,1.00
2022-11-03T17:06:42.896Z,54.00
2022-11-03T17:09:14.747Z,1.00
2022-11-03T17:11:44.147Z,1.00
2022-11-03T17:14:14.711Z,99.90
2022-11-03T17:16:46.860Z,1.00
2022-11-03T17:19:17.161Z,99.90
2022-11-03T17:21:46.617Z,99.90
2022-11-03T17:24:17.247Z,1.00
2022-11-03T17:26:57.410Z,99.90
2022-11-03T17:29:34.857Z,99.90
2022-11-03T17:32:06.188Z,1.00
2022-11-03T17:34:35.656Z,99.90
2022-11-03T17:37:05.306Z,59.60
2022-11-03T17:39:39.498Z,99.90
2022-11-03T17:42:20.096Z,1.00
2022-11-03T17:44:51.432Z,1.00
2022-11-03T17:47:21.517Z,99.90
2022-11-03T17:49:54.967Z,99.90
2022-11-03T17:52:28.827Z,1.00
2022-11-03T17:55:01.386Z,1.00
2022-11-03T17:57:31.226Z,1.00
2022-11-03T18:00:01.946Z,1.00
2022-11-03T18:02:41.905Z,1.00
2022-11-03T18:05:22.908Z,1.00
2022-11-03T18:07:53.396Z,1.00
2022-11-03T18:10:28.014Z,1.00
2022-11-03T18:13:21.512Z,1.00
2022-11-03T18:15:54.376Z,1.00
2022-11-03T18:18:28.308Z,99.90
2022-11-03T18:20:58.829Z,99.90
2022-11-03T18:23:31.626Z,1.00
2022-11-03T18:26:04.437Z,1.00
2022-11-03T18:28:33.847Z,1.00
2022-11-03T18:31:05.027Z,1.00
2022-11-03T18:33:37.788Z,1.00
2022-11-03T18:36:09.084Z,1.00
2022-11-03T18:38:42.104Z,1.00
2022-11-03T18:41:33.308Z,1.00
2022-11-03T18:44:03.716Z,99.90
2022-11-03T18:46:34.796Z,99.90
2022-11-03T18:49:04.937Z,99.90
2022-11-03T18:51:35.429Z,1.00
2022-11-03T18:54:11.585Z,1.00
2022-11-03T18:56:43.393Z,1.00
2022-11-03T18:59:22.214Z,99.90
2022-11-03T19:01:52.530Z,1.00
2022-11-03T19:04:28.167Z,99.90
2022-11-03T19:07:02.130Z,1.00
2022-11-03T19:09:32.149Z,11.00
2022-11-03T19:12:03.950Z,1.00
2022-11-03T19:14:38.327Z,1.00
2022-11-03T19:17:28.709Z,1.00
2022-11-03T19:19:59.445Z,1.00
2022-11-03T19:22:29.516Z,1.00
2022-11-03T19:24:59.780Z,1.00
2022-11-03T19:27:33.303Z,1.00
2022-11-03T19:30:05.907Z,1.00
2022-11-03T19:32:40.042Z,1.00
2022-11-03T19:35:21.738Z,1.00
2022-11-03T19:37:57.346Z,1.00
2022-11-03T19:40:27.528Z,15.10
2022-11-03T19:42:58.825Z,32.80
2022-11-03T19:45:29.733Z,1.00
2022-11-03T19:50:53.852Z,1.00
2022-11-03T19:53:28.108Z,1.00
2022-11-03T19:55:59.505Z,1.00
2022-11-03T19:58:31.737Z,1.00
2022-11-03T20:01:07.246Z,1.00
2022-11-03T20:03:38.553Z,1.00
2022-11-03T20:06:12.175Z,1.00
2022-11-03T20:08:45.854Z,1.00
2022-11-03T20:11:16.523Z,37.60
2022-11-03T20:13:47.905Z,30.90
2022-11-03T20:16:20.003Z,80.00
2022-11-03T20:18:50.649Z,90.80
2022-11-03T20:21:25.553Z,99.90
2022-11-03T20:23:57.386Z,99.90
2022-11-03T20:26:29.420Z,99.90
2022-11-03T20:29:02.516Z,99.90
2022-11-03T20:31:33.036Z,99.90
2022-11-03T20:34:02.423Z,99.90
2022-11-03T20:36:33.956Z,99.90
2022-11-03T20:39:11.493Z,86.10
2022-11-03T20:41:47.281Z,87.70
2022-11-03T20:44:19.063Z,95.40
2022-11-03T20:46:48.972Z,57.30
2022-11-03T20:49:18.727Z,46.80
2022-11-03T20:51:48.704Z,98.90
2022-11-03T20:54:19.847Z,99.90
2022-11-03T20:56:50.230Z,73.90
2022-11-03T20:59:25.074Z,99.90
2022-11-03T21:01:55.014Z,15.70
2022-11-03T21:04:24.363Z,11.30
2022-11-03T21:06:54.515Z,41.00
2022-11-03T21:09:24.553Z,9.30
2022-11-03T21:11:54.770Z,99.90
2022-11-03T21:14:27.706Z,99.90
2022-11-03T21:17:14.880Z,99.90
2022-11-03T21:19:58.109Z,99.90
2022-11-03T21:25:24.115Z,82.30
2022-11-03T21:27:55.222Z,96.80
2022-11-03T21:30:25.846Z,87.30
2022-11-03T21:32:55.384Z,99.90
2022-11-03T21:35:24.944Z,24.40
2022-11-03T21:37:54.368Z,38.10
2022-11-03T21:40:34.325Z,80.60
2022-11-03T21:43:21.273Z,99.90
2022-11-03T21:45:52.492Z,87.00
2022-11-03T21:48:39.325Z,99.90
2022-11-03T21:51:27.106Z,99.90
2022-11-03T21:53:56.435Z,99.90
2022-11-03T21:56:26.925Z,99.90
2022-11-03T21:58:56.479Z,99.90
2022-11-03T22:01:27.398Z,99.90
2022-11-03T22:03:58.548Z,99.90
2022-11-03T22:06:28.489Z,99.90
2022-11-03T22:08:57.918Z,99.90
2022-11-03T22:11:27.128Z,99.90
2022-11-03T22:13:58.542Z,99.90
2022-11-03T22:16:37.927Z,99.90
2022-11-03T22:19:26.275Z,99.90
2022-11-03T22:22:12.947Z,99.90
2022-11-03T22:24:59.765Z,99.90
2022-11-03T22:27:30.408Z,99.90
2022-11-03T22:30:17.059Z,99.90
2022-11-03T22:32:52.733Z,99.90
2022-11-03T22:35:45.526Z,99.90
2022-11-03T22:38:16.765Z,99.90
2022-11-03T22:41:06.170Z,99.90
2022-11-03T22:43:52.843Z,99.90
2022-11-03T22:46:21.918Z,99.90
2022-11-03T22:48:52.697Z,99.90
2022-11-03T22:51:21.951Z,99.90
2022-11-03T22:54:08.913Z,99.90
2022-11-03T22:56:38.752Z,99.90
2022-11-03T22:59:08.624Z,99.90
2022-11-03T23:01:38.345Z,99.90
2022-11-03T23:04:09.698Z,99.90
2022-11-03T23:06:41.302Z,99.90
2022-11-03T23:09:12.329Z,99.90
2022-11-03T23:11:41.560Z,99.90
2022-11-03T23:14:12.443Z,99.90
2022-11-03T23:16:43.153Z,99.90
2022-11-03T23:19:32.304Z,99.90
2022-11-03T23:22:02.635Z,99.90
2022-11-03T23:24:49.458Z,99.90
2022-11-03T23:27:18.542Z,99.90
2022-11-03T23:29:47.646Z,99.90
2022-11-03T23:32:16.881Z,99.90
2022-11-03T23:34:47.362Z,99.90
2022-11-03T23:37:16.530Z,99.90
2022-11-03T23:39:45.542Z,99.90
2022-11-03T23:42:14.666Z,99.90
2022-11-03T23:45:01.358Z,99.90
2022-11-03T23:47:48.306Z,99.90
2022-11-03T23:50:18.942Z,99.90
2022-11-03T23:52:48.269Z,99.90
2022-11-03T23:55:17.497Z,99.90
2022-11-03T23:58:03.992Z,99.90
